Time;durP1;ratioP1;P1;durP2;ratioP2;P2;SDS_P1;SDS_P2;PMS_P1;PMS_P2;Temp;Humidity;BMP_temperature;BMP_pressure;BME280_temperature;BME280_humidity;BME280_pressure;Samples;Min_cycle;Max_cycle;Signal;HPM_P1;HPM_P2
2022/03/06 00:01:36;;;;;;;34.58;15.70;;;;;;;-0.34;97.88;100399.25;4904589;29;20099;-79
2022/03/06 00:04:21;;;;;;;29.77;14.98;;;;;;;-0.34;97.77;100395.81;4904173;29;20072;-79
2022/03/06 00:07:06;;;;;;;35.63;15.27;;;;;;;-0.30;97.48;100401.06;4904147;29;20078;-79
2022/03/06 00:09:51;;;;;;;34.72;15.05;;;;;;;-0.31;98.15;100408.78;4903479;29;20044;-79
2022/03/06 00:12:36;;;;;;;32.72;15.90;;;;;;;-0.31;98.01;100412.22;4903710;29;20052;-79
2022/03/06 00:15:22;;;;;;;40.17;17.55;;;;;;;-0.32;98.21;100399.31;4887670;29;20120;-79
2022/03/06 00:18:07;;;;;;;37.63;16.65;;;;;;;-0.38;98.50;100392.28;4903689;29;20056;-79
2022/03/06 00:20:58;;;;;;;29.17;14.75;;;;;;;-0.10;98.30;100444.53;4903469;29;20459;-80
2022/03/06 00:23:43;;;;;;;34.40;16.55;;;;;;;-0.25;98.49;100407.25;4903632;29;20395;-79
2022/03/06 00:26:27;;;;;;;32.67;15.45;;;;;;;-0.35;98.66;100388.94;4903539;29;20398;-79
2022/03/06 00:29:13;;;;;;;31.48;15.70;;;;;;;-0.36;99.99;100398.31;4889771;29;20048;-79
2022/03/06 00:31:57;;;;;;;32.92;16.15;;;;;;;-0.40;100.00;100390.47;4903238;29;20424;-79
2022/03/06 00:34:42;;;;;;;31.02;13.82;;;;;;;-0.35;100.00;100394.06;4903701;29;20045;-80
2022/03/06 00:37:28;;;;;;;35.42;16.10;;;;;;;-0.44;100.00;100394.69;4903597;29;20089;-79
2022/03/06 00:40:12;;;;;;;28.35;14.45;;;;;;;-0.49;100.00;100396.22;4876139;29;20051;-80
2022/03/06 00:42:57;;;;;;;34.92;15.80;;;;;;;-0.63;100.00;100388.13;4903173;29;20071;-79
2022/03/06 00:45:42;;;;;;;30.85;15.77;;;;;;;-0.50;100.00;100399.66;4889098;29;20059;-79
2022/03/06 00:48:26;;;;;;;36.30;19.08;;;;;;;-0.69;100.00;100393.06;4903049;29;20065;-79
2022/03/06 00:51:13;;;;;;;35.67;17.73;;;;;;;-0.83;100.00;100395.25;4902848;29;20048;-79
2022/03/06 00:53:57;;;;;;;33.80;16.10;;;;;;;-0.58;100.00;100394.28;4889073;29;20140;-79
2022/03/06 00:56:41;;;;;;;38.90;18.27;;;;;;;-0.66;100.00;100425.75;4888737;29;20056;-79
2022/03/06 00:59:32;;;;;;;32.42;15.48;;;;;;;-0.74;100.00;100422.97;4902799;29;20076;-79
2022/03/06 01:02:17;;;;;;;30.45;15.98;;;;;;;-0.58;100.00;100419.16;4902640;29;20056;-79
2022/03/06 01:05:03;;;;;;;32.72;14.90;;;;;;;-0.59;100.00;100401.94;4902676;29;20049;-79
2022/03/06 01:07:48;;;;;;;31.17;15.05;;;;;;;-0.68;100.00;100406.81;4902508;29;20045;-79
2022/03/06 01:10:35;;;;;;;35.10;15.85;;;;;;;-0.54;100.00;100408.13;4902833;29;20147;-79
2022/03/06 01:13:21;;;;;;;36.45;14.73;;;;;;;-0.63;100.00;100371.81;4902128;29;20055;-80
2022/03/06 01:16:06;;;;;;;44.13;18.27;;;;;;;-0.66;100.00;100382.88;4902444;29;20060;-79
2022/03/06 01:18:50;;;;;;;40.53;16.33;;;;;;;-0.50;100.00;100399.66;4902413;29;20068;-80
2022/03/06 01:21:34;;;;;;;37.08;16.05;;;;;;;-0.40;100.00;100416.22;4902078;29;20045;-80
2022/03/06 01:24:19;;;;;;;35.20;14.23;;;;;;;-0.40;100.00;100411.06;4902230;29;20052;-79
2022/03/06 01:27:03;;;;;;;28.00;13.10;;;;;;;-0.60;100.00;100380.50;4902244;29;20049;-79
2022/03/06 01:29:47;;;;;;;30.70;14.52;;;;;;;-0.55;99.07;100389.22;4902225;29;20432;-80
2022/03/06 01:32:33;;;;;;;26.05;13.40;;;;;;;-0.54;99.04;100370.38;4902179;29;20044;-79
2022/03/06 01:35:18;;;;;;;29.67;13.80;;;;;;;-0.39;97.92;100411.13;4902208;29;20047;-79
2022/03/06 01:38:02;;;;;;;27.38;14.18;;;;;;;-0.56;97.93;100376.31;4902290;29;20036;-79
2022/03/06 01:40:47;;;;;;;33.20;14.85;;;;;;;-0.54;98.77;100372.94;4902094;29;20195;-79
2022/03/06 01:43:31;;;;;;;34.67;15.82;;;;;;;-0.47;98.67;100386.88;4902162;29;20135;-79
2022/03/06 01:46:16;;;;;;;37.55;16.27;;;;;;;-0.68;99.67;100363.06;4901797;29;20408;-79
2022/03/06 01:49:00;;;;;;;34.30;16.40;;;;;;;-0.50;100.00;100403.09;4902016;29;20052;-79
2022/03/06 01:51:45;;;;;;;30.33;14.27;;;;;;;-0.39;99.03;100397.38;4901902;29;20120;-79
2022/03/06 01:54:29;;;;;;;33.20;14.73;;;;;;;-0.39;99.21;100384.50;4888066;29;20076;-79
2022/03/06 01:57:14;;;;;;;31.83;14.18;;;;;;;-0.36;98.74;100385.44;4901526;29;20052;-79
2022/03/06 02:00:00;;;;;;;31.05;13.88;;;;;;;-0.34;98.04;100385.50;4900177;29;20056;-79
2022/03/06 02:02:45;;;;;;;31.63;14.73;;;;;;;-0.47;100.00;100372.28;4900064;29;20053;-80
2022/03/06 02:05:30;;;;;;;33.75;16.08;;;;;;;-0.40;99.27;100377.63;4901833;29;20041;-78
2022/03/06 02:08:15;;;;;;;30.92;13.98;;;;;;;-0.45;98.79;100369.78;4901063;29;20127;-79
2022/03/06 02:11:00;;;;;;;27.55;12.98;;;;;;;-0.34;99.10;100388.09;4901095;29;20045;-79
2022/03/06 02:13:45;;;;;;;28.25;13.02;;;;;;;-0.45;99.05;100371.47;4901097;29;20462;-79
2022/03/06 02:16:34;;;;;;;24.02;12.35;;;;;;;-0.43;98.07;100387.81;4904035;29;20076;-89
2022/03/06 02:19:19;;;;;;;25.17;12.75;;;;;;;-0.66;97.94;100364.88;4872874;29;20040;-78
2022/03/06 02:22:04;;;;;;;26.92;12.90;;;;;;;-0.40;98.70;100385.34;4899703;29;20052;-78
2022/03/06 02:24:48;;;;;;;25.08;12.82;;;;;;;-0.33;98.64;100394.97;4899554;29;20044;-78
2022/03/06 02:27:33;;;;;;;29.27;14.05;;;;;;;-0.71;99.91;100369.03;4899865;29;20345;-79
2022/03/06 02:30:23;;;;;;;27.20;13.48;;;;;;;-0.68;100.00;100361.41;4899662;29;20104;-78
2022/03/06 02:33:11;;;;;;;28.55;13.98;;;;;;;-0.64;100.00;100376.09;4886478;29;20343;-78
2022/03/06 02:35:55;;;;;;;25.83;13.23;;;;;;;-0.62;99.58;100361.53;4892728;29;20045;-79
2022/03/06 02:38:41;;;;;;;24.75;12.13;;;;;;;-0.49;97.59;100396.22;4893670;29;20055;-79
2022/03/06 02:41:32;;;;;;;27.27;12.82;;;;;;;-0.52;98.02;100391.91;4907356;29;20045;-78
2022/03/06 02:44:17;;;;;;;22.35;12.13;;;;;;;-0.56;97.53;100361.72;4907522;29;20560;-78
2022/03/06 02:47:02;;;;;;;28.30;13.43;;;;;;;-0.67;96.78;100363.13;4893785;29;20192;-78
2022/03/06 02:49:48;;;;;;;27.90;13.20;;;;;;;-0.65;97.78;100363.16;4907839;29;20047;-79
2022/03/06 02:52:33;;;;;;;36.22;17.40;;;;;;;-0.69;97.75;100367.34;4907369;29;20044;-78
2022/03/06 02:55:18;;;;;;;28.20;14.05;;;;;;;-0.41;98.12;100386.16;4907777;29;20089;-79
2022/03/06 02:58:03;;;;;;;25.80;14.07;;;;;;;-0.45;98.28;100397.22;4907341;29;20051;-79
2022/03/06 03:00:49;;;;;;;31.67;15.60;;;;;;;-0.57;97.97;100369.41;4907194;29;20044;-79
2022/03/06 03:03:40;;;;;;;28.60;14.60;;;;;;;-0.61;99.48;100372.75;4893141;29;20044;-78
2022/03/06 03:06:24;;;;;;;24.65;13.50;;;;;;;-0.60;99.20;100393.34;4893444;29;20056;-78
2022/03/06 03:09:20;;;;;;;26.63;13.80;;;;;;;-0.75;99.40;100362.91;4894366;29;20048;-78
2022/03/06 03:12:05;;;;;;;28.60;15.07;;;;;;;-0.66;98.01;100367.44;4906856;29;20068;-79
2022/03/06 03:14:50;;;;;;;27.73;14.45;;;;;;;-0.72;97.97;100360.41;4907257;29;20041;-78
2022/03/06 03:17:35;;;;;;;27.15;13.82;;;;;;;-0.59;96.97;100376.22;4907341;29;20370;-79
2022/03/06 03:20:21;;;;;;;27.70;14.75;;;;;;;-0.59;96.71;100397.66;4907428;29;20048;-78
2022/03/06 03:23:06;;;;;;;27.23;13.82;;;;;;;-0.79;98.00;100361.06;4906989;29;20490;-78
2022/03/06 03:25:50;;;;;;;28.40;12.93;;;;;;;-0.60;96.03;100401.06;4907676;29;20053;-78
2022/03/06 03:28:35;;;;;;;25.25;12.85;;;;;;;-0.73;95.48;100361.25;4907518;29;20079;-78
2022/03/06 03:31:20;;;;;;;27.23;13.63;;;;;;;-0.87;96.77;100354.84;4893244;29;20045;-79
2022/03/06 03:34:04;;;;;;;29.38;13.20;;;;;;;-0.48;96.07;100398.88;4893088;29;20052;-79
2022/03/06 03:36:49;;;;;;;26.25;12.55;;;;;;;-0.55;95.17;100372.91;4907229;29;20454;-78
2022/03/06 03:39:34;;;;;;;23.52;12.15;;;;;;;-0.65;94.17;100361.50;4907201;29;20470;-78
2022/03/06 03:42:18;;;;;;;26.63;12.82;;;;;;;-0.67;94.67;100386.28;4907141;29;20048;-78
2022/03/06 03:45:05;;;;;;;26.73;12.57;;;;;;;-0.57;95.29;100372.84;4891173;29;20119;-79
2022/03/06 03:47:49;;;;;;;27.98;12.57;;;;;;;-0.64;94.84;100354.63;4903724;29;20108;-78
2022/03/06 03:50:33;;;;;;;26.13;12.82;;;;;;;-0.73;95.00;100373.25;4904210;29;20432;-78
2022/03/06 03:53:18;;;;;;;25.27;12.52;;;;;;;-0.68;95.32;100373.38;4904324;29;20052;-78
2022/03/06 03:56:06;;;;;;;27.42;13.93;;;;;;;-0.57;94.10;100406.31;4903862;29;20048;-79
2022/03/06 03:58:52;;;;;;;27.40;12.13;;;;;;;-0.75;94.16;100364.59;4904152;29;20051;-78
2022/03/06 04:01:37;;;;;;;22.60;11.48;;;;;;;-0.43;93.83;100405.84;4890168;29;20044;-78
2022/03/06 04:04:22;;;;;;;24.30;12.07;;;;;;;-0.50;93.37;100399.66;4903725;29;20359;-78
2022/03/06 04:07:07;;;;;;;22.45;10.93;;;;;;;-0.56;92.55;100384.88;4903743;29;20044;-78
2022/03/06 04:09:51;;;;;;;23.33;11.02;;;;;;;-0.43;92.32;100408.41;4903731;29;20040;-78
2022/03/06 04:12:36;;;;;;;23.23;12.65;;;;;;;-0.62;92.46;100376.97;4903365;29;20057;-78
2022/03/06 04:15:20;;;;;;;26.17;12.25;;;;;;;-0.58;92.73;100368.56;4903478;29;20045;-78
2022/03/06 04:18:05;;;;;;;21.50;11.40;;;;;;;-0.58;93.70;100376.28;4903049;29;20048;-78
2022/03/06 04:20:49;;;;;;;25.00;12.27;;;;;;;-0.49;93.11;100368.81;4903458;29;20052;-78
2022/03/06 04:23:34;;;;;;;23.63;11.82;;;;;;;-0.41;92.72;100378.44;4903710;29;20092;-78
2022/03/06 04:26:18;;;;;;;20.40;10.65;;;;;;;-0.35;93.80;100399.22;4889194;29;20432;-78
2022/03/06 04:29:03;;;;;;;23.15;11.80;;;;;;;-0.73;91.52;100356.09;4903246;29;20044;-78
2022/03/06 04:31:47;;;;;;;19.35;10.95;;;;;;;-0.66;93.03;100362.28;4889750;29;20053;-78
2022/03/06 04:34:32;;;;;;;23.00;12.65;;;;;;;-0.51;91.41;100397.91;4903703;29;20119;-78
2022/03/06 04:37:16;;;;;;;26.90;12.38;;;;;;;-0.58;92.57;100403.72;4889395;29;20077;-78
2022/03/06 04:40:01;;;;;;;23.50;12.10;;;;;;;-0.63;92.94;100376.97;4903454;29;20048;-78
2022/03/06 04:42:45;;;;;;;20.02;11.93;;;;;;;-0.73;92.78;100368.09;4903205;29;20056;-78
2022/03/06 04:45:30;;;;;;;23.17;12.23;;;;;;;-0.79;92.44;100358.50;4889555;29;20072;-78
2022/03/06 04:48:14;;;;;;;21.10;11.90;;;;;;;-0.75;93.60;100362.91;4903320;29;20048;-78
2022/03/06 04:50:59;;;;;;;25.38;13.75;;;;;;;-0.69;92.72;100369.06;4902782;29;20384;-78
2022/03/06 04:53:43;;;;;;;24.92;12.77;;;;;;;-0.62;93.96;100404.44;4889385;29;20044;-78
2022/03/06 04:56:29;;;;;;;23.80;12.32;;;;;;;-0.85;95.64;100362.59;4902978;29;20072;-78
2022/03/06 04:59:14;;;;;;;22.33;11.88;;;;;;;-0.69;94.91;100366.47;4903035;29;20440;-78
2022/03/06 05:01:59;;;;;;;24.88;12.27;;;;;;;-0.65;94.83;100402.66;4889083;29;20421;-78
2022/03/06 05:04:45;;;;;;;20.90;11.38;;;;;;;-0.79;95.05;100371.34;4903006;29;20049;-78
2022/03/06 05:07:29;;;;;;;23.92;12.13;;;;;;;-0.63;96.02;100371.81;4889001;29;20123;-78
2022/03/06 05:10:14;;;;;;;21.42;11.10;;;;;;;-0.77;95.44;100363.69;4902797;29;20340;-78
2022/03/06 05:12:59;;;;;;;20.30;11.05;;;;;;;-0.83;93.57;100364.38;4902720;29;20060;-78
2022/03/06 05:15:44;;;;;;;21.33;10.75;;;;;;;-0.79;94.34;100362.78;4902738;29;20115;-78
2022/03/06 05:18:28;;;;;;;19.52;10.23;;;;;;;-0.65;93.74;100370.88;4902915;29;20045;-78
2022/03/06 05:21:14;;;;;;;17.13;9.95;;;;;;;-0.52;93.65;100370.41;4903188;29;20048;-78
2022/03/06 05:23:59;;;;;;;20.23;11.27;;;;;;;-0.71;93.87;100379.31;4902592;29;20060;-78
2022/03/06 05:26:44;;;;;;;23.48;11.85;;;;;;;-0.60;94.08;100405.34;4902351;29;20080;-78
2022/03/06 05:29:28;;;;;;;21.60;11.23;;;;;;;-0.83;94.18;100371.22;4902688;29;20139;-78
2022/03/06 05:32:13;;;;;;;23.88;11.82;;;;;;;-0.83;94.24;100366.94;4902575;29;20056;-78
2022/03/06 05:34:58;;;;;;;22.95;11.82;;;;;;;-0.67;93.62;100381.16;4903375;29;20371;-78
2022/03/06 05:37:43;;;;;;;24.25;12.52;;;;;;;-0.52;93.52;100407.34;4904241;29;20048;-78
2022/03/06 05:40:30;;;;;;;20.65;10.55;;;;;;;-0.66;91.57;100393.16;4904065;29;20072;-78
2022/03/06 05:43:15;;;;;;;23.40;10.75;;;;;;;-0.49;91.92;100411.66;4889427;29;20049;-78
2022/03/06 05:46:02;;;;;;;21.73;10.30;;;;;;;-0.67;90.90;100394.00;4889559;29;20044;-78
2022/03/06 05:48:49;;;;;;;21.25;11.35;;;;;;;-0.52;91.59;100399.63;4903267;29;20352;-78
2022/03/06 05:51:33;;;;;;;19.92;10.95;;;;;;;-0.92;92.08;100374.38;4886373;29;20499;-78
2022/03/06 05:54:18;;;;;;;20.60;11.23;;;;;;;-0.82;91.71;100386.69;4889822;29;20340;-78
2022/03/06 05:57:06;;;;;;;19.63;10.65;;;;;;;-0.57;91.54;100414.03;4905401;29;20439;-78
2022/03/06 05:59:51;;;;;;;19.05;10.68;;;;;;;-0.66;92.38;100387.16;4904046;29;20044;-78
2022/03/06 06:02:37;;;;;;;20.00;10.68;;;;;;;-0.44;92.45;100401.53;4903802;29;20418;-78
2022/03/06 06:05:22;;;;;;;18.23;10.10;;;;;;;-0.39;92.43;100384.50;4889231;29;20416;-78
2022/03/06 06:08:06;;;;;;;20.77;12.10;;;;;;;-0.24;90.28;100398.69;4903081;29;20051;-78
2022/03/06 06:10:51;;;;;;;17.85;10.68;;;;;;;-0.45;89.32;100385.22;4903154;29;20056;-78
2022/03/06 06:13:35;;;;;;;15.52;9.35;;;;;;;-0.35;88.42;100388.94;4885608;29;20091;-78
2022/03/06 06:16:20;;;;;;;16.35;10.82;;;;;;;-0.40;85.73;100390.47;4902559;29;20060;-78
2022/03/06 06:19:06;;;;;;;15.90;10.05;;;;;;;-0.13;86.35;100421.28;4902291;29;20072;-78
2022/03/06 06:21:52;;;;;;;14.32;8.70;;;;;;;-0.03;83.28;100431.88;4902031;29;20068;-78
2022/03/06 06:24:36;;;;;;;13.40;9.10;;;;;;;-0.18;81.11;100397.13;4901616;29;20057;-78
2022/03/06 06:27:21;;;;;;;14.25;9.48;;;;;;;-0.18;82.18;100390.25;4902059;29;20048;-78
2022/03/06 06:30:08;;;;;;;16.35;9.50;;;;;;;-0.11;83.25;100393.88;4901410;29;20056;-78
2022/03/06 06:32:52;;;;;;;20.35;11.38;;;;;;;-0.17;83.86;100399.72;4901638;29;20352;-78
2022/03/06 06:35:38;;;;;;;20.63;11.93;;;;;;;-0.34;85.88;100395.81;4901655;29;20115;-78
2022/03/06 06:38:22;;;;;;;17.15;10.85;;;;;;;-0.27;86.28;100403.72;4901344;29;20049;-78
2022/03/06 06:41:07;;;;;;;17.13;9.88;;;;;;;0.04;86.99;100422.63;4901414;29;20432;-78
2022/03/06 06:43:52;;;;;;;16.50;10.05;;;;;;;-0.01;83.84;100399.31;4900964;29;20116;-78
2022/03/06 06:46:36;;;;;;;19.83;10.70;;;;;;;-0.09;82.80;100385.34;4901264;29;20120;-78
2022/03/06 06:49:21;;;;;;;18.08;9.02;;;;;;;0.21;81.79;100410.19;4901077;29;20056;-78
2022/03/06 06:52:06;;;;;;;11.98;7.45;;;;;;;0.08;78.11;100393.53;4887312;29;20052;-78
2022/03/06 06:54:50;;;;;;;11.15;7.50;;;;;;;0.30;78.98;100392.41;4887093;29;20057;-78
2022/03/06 06:57:35;;;;;;;12.93;6.75;;;;;;;0.50;75.31;100428.13;4900660;29;20119;-78
2022/03/06 07:00:20;;;;;;;11.82;7.28;;;;;;;0.57;77.46;100430.00;4901103;29;20044;-78
2022/03/06 07:03:04;;;;;;;11.75;6.82;;;;;;;0.50;72.91;100430.69;4887215;29;20056;-78
2022/03/06 07:05:49;;;;;;;11.77;6.18;;;;;;;0.61;74.16;100412.06;4884132;29;20188;-78
2022/03/06 07:08:33;;;;;;;12.15;6.53;;;;;;;0.60;70.62;100402.59;4887019;29;20052;-91
2022/03/06 07:11:18;;;;;;;9.85;6.40;;;;;;;0.47;70.60;100403.13;4887906;29;20128;-78
2022/03/06 07:14:02;;;;;;;13.05;7.47;;;;;;;0.52;71.15;100413.53;4900973;29;20069;-78
2022/03/06 07:16:47;;;;;;;13.27;8.35;;;;;;;0.52;71.82;100406.69;4898751;29;20124;-78
2022/03/06 07:19:32;;;;;;;19.48;9.77;;;;;;;0.96;74.17;100424.94;4898881;29;20066;-78
2022/03/06 07:22:17;;;;;;;21.63;11.63;;;;;;;0.87;74.72;100393.78;4901921;29;20048;-78
2022/03/06 07:25:02;;;;;;;21.50;11.60;;;;;;;1.22;73.95;100432.41;4902285;29;20056;-78
2022/03/06 07:27:47;;;;;;;14.80;8.65;;;;;;;1.22;70.69;100424.69;4902236;29;20052;-79
2022/03/06 07:30:32;;;;;;;22.90;11.55;;;;;;;1.28;70.60;100417.94;4888217;29;20053;-79
2022/03/06 07:33:16;;;;;;;22.27;11.43;;;;;;;1.48;69.89;100430.41;4901975;29;20060;-78
2022/03/06 07:36:01;;;;;;;16.15;8.88;;;;;;;1.30;67.83;100402.47;4888256;29;20450;-79
2022/03/06 07:38:46;;;;;;;8.85;5.18;;;;;;;1.09;67.29;100406.31;4902216;29;20048;-79
2022/03/06 07:41:30;;;;;;;9.50;5.25;;;;;;;1.63;68.28;100425.56;4903883;29;20511;-79
2022/03/06 07:44:14;;;;;;;8.23;5.80;;;;;;;1.67;66.59;100429.09;4903715;29;20059;-80
2022/03/06 07:46:59;;;;;;;11.43;6.63;;;;;;;1.95;66.54;100417.59;4904118;29;20044;-80
2022/03/06 07:49:44;;;;;;;12.35;6.45;;;;;;;2.17;66.49;100431.78;4903632;29;20444;-79
2022/03/06 07:52:28;;;;;;;9.48;6.20;;;;;;;1.92;64.48;100430.44;4903834;29;20112;-79
2022/03/06 07:55:13;;;;;;;14.82;7.80;;;;;;;1.59;64.41;100424.66;4903974;29;20056;-78
2022/03/06 07:57:57;;;;;;;14.68;7.10;;;;;;;2.16;66.22;100415.41;4903629;29;20132;-79
2022/03/06 08:00:42;;;;;;;15.35;7.75;;;;;;;2.46;65.52;100415.09;4889905;29;20053;-80
2022/03/06 08:03:26;;;;;;;12.15;8.05;;;;;;;2.58;65.55;100398.91;4903824;29;20056;-79
2022/03/06 08:06:11;;;;;;;13.70;7.82;;;;;;;2.15;63.96;100415.41;4886833;29;20057;-79
2022/03/06 08:08:55;;;;;;;42.75;21.50;;;;;;;2.51;66.08;100397.09;4903756;29;20055;-80
2022/03/06 08:11:40;;;;;;;76.20;38.90;;;;;;;2.69;65.81;100406.84;4886316;29;20448;-80
2022/03/06 08:14:24;;;;;;;111.45;63.28;;;;;;;2.83;65.08;100410.53;4903047;29;20044;-80
2022/03/06 08:17:09;;;;;;;19.10;12.40;;;;;;;2.81;61.07;100407.91;4903027;29;20108;-80
2022/03/06 08:19:53;;;;;;;13.68;9.57;;;;;;;2.71;63.51;100400.88;4889322;29;20057;-79
2022/03/06 08:22:37;;;;;;;16.88;11.38;;;;;;;3.03;63.50;100405.69;4889005;29;20439;-80
2022/03/06 08:25:22;;;;;;;153.02;81.05;;;;;;;2.96;63.49;100415.06;4903396;29;20044;-80
2022/03/06 08:28:07;;;;;;;12.65;8.98;;;;;;;2.43;62.94;100401.25;4902813;29;20052;-80
2022/03/06 08:30:51;;;;;;;12.82;8.52;;;;;;;2.67;62.69;100404.25;4902899;29;20128;-80
2022/03/06 08:33:36;;;;;;;15.90;10.73;;;;;;;2.60;62.38;100399.84;4902885;29;20045;-80
2022/03/06 08:36:20;;;;;;;14.70;10.02;;;;;;;2.54;63.84;100394.56;4888634;29;20360;-80
2022/03/06 08:39:05;;;;;;;24.20;13.98;;;;;;;2.61;65.23;100400.69;4903009;29;20040;-80
2022/03/06 08:41:49;;;;;;;22.60;12.27;;;;;;;2.27;63.41;100397.50;4889032;29;20072;-80
2022/03/06 08:44:33;;;;;;;73.30;35.45;;;;;;;2.32;63.30;100401.06;4888968;29;20508;-80
2022/03/06 08:47:17;;;;;;;39.08;18.88;;;;;;;2.20;63.45;100409.47;4902933;29;20533;-80
2022/03/06 08:50:05;;;;;;;40.47;19.45;;;;;;;2.35;64.49;100398.53;4902975;29;20053;-80
2022/03/06 08:52:49;;;;;;;19.13;12.20;;;;;;;2.90;65.30;100404.63;4902352;29;20355;-80
2022/03/06 08:55:34;;;;;;;70.53;34.70;;;;;;;2.36;64.83;100409.75;4902608;29;20060;-79
2022/03/06 08:58:18;;;;;;;22.77;13.65;;;;;;;2.47;64.57;100387.50;4889015;29;20427;-78
2022/03/06 09:01:03;;;;;;;22.92;13.38;;;;;;;2.57;64.08;100386.84;4902310;29;20049;-79
2022/03/06 09:03:47;;;;;;;37.28;18.75;;;;;;;2.71;65.17;100377.59;4902798;29;20091;-80
2022/03/06 09:06:32;;;;;;;26.65;16.65;;;;;;;2.87;64.72;100390.75;4872856;29;20060;-80
2022/03/06 09:09:16;;;;;;;103.28;44.05;;;;;;;2.52;64.27;100393.66;4888106;29;20047;-81
2022/03/06 09:12:01;;;;;;;40.03;19.95;;;;;;;2.73;64.68;100375.91;4902105;29;20048;-81
2022/03/06 09:14:46;;;;;;;33.05;15.90;;;;;;;2.70;63.50;100395.69;4888099;29;20044;-79
2022/03/06 09:17:31;;;;;;;59.15;22.85;;;;;;;2.62;64.75;100377.44;4902124;29;20048;-80
2022/03/06 09:20:15;;;;;;;124.70;65.40;;;;;;;2.92;63.81;100404.63;4887999;29;20044;-79
2022/03/06 09:22:59;;;;;;;35.63;22.70;;;;;;;2.86;64.24;100399.34;4902349;29;20067;-80
2022/03/06 09:25:43;;;;;;;161.68;53.45;;;;;;;2.74;63.38;100389.69;4901817;29;20420;-80
2022/03/06 09:28:28;;;;;;;92.50;36.97;;;;;;;2.86;64.43;100389.00;4901761;29;20049;-83
2022/03/06 09:31:12;;;;;;;176.77;52.13;;;;;;;2.67;63.42;100385.28;4901766;29;20048;-80
2022/03/06 09:33:57;;;;;;;42.95;19.33;;;;;;;2.38;63.79;100403.75;4902058;29;20048;-81
2022/03/06 09:36:42;;;;;;;36.40;19.52;;;;;;;2.87;64.66;100407.16;4887649;29;20052;-80
2022/03/06 09:39:26;;;;;;;658.70;433.88;;;;;;;2.84;64.74;100412.28;4901862;29;20439;-80
2022/03/06 09:42:11;;;;;;;116.47;56.25;;;;;;;2.77;64.31;100405.28;4902059;29;20056;-79
2022/03/06 09:44:56;;;;;;;58.40;26.42;;;;;;;3.25;65.55;100399.06;4901520;29;20412;-81
2022/03/06 09:47:44;;;;;;;73.68;24.60;;;;;;;3.51;64.73;100402.91;4902011;29;20044;-80
2022/03/06 09:50:28;;;;;;;63.00;25.45;;;;;;;3.54;63.65;100401.19;4901563;29;20060;-80
2022/03/06 09:53:12;;;;;;;209.90;58.45;;;;;;;3.34;62.07;100393.16;4901483;29;20139;-80
2022/03/06 09:55:57;;;;;;;149.88;41.92;;;;;;;3.35;64.14;100390.59;4901844;29;20405;-80
2022/03/06 09:58:41;;;;;;;220.93;58.40;;;;;;;3.58;63.27;100400.41;4874320;29;20443;-81
2022/03/06 10:01:26;;;;;;;114.10;34.90;;;;;;;3.41;62.91;100397.56;4901163;29;20084;-82
2022/03/06 10:04:21;;;;;;;505.33;235.10;;;;;;;3.43;63.81;100388.09;4901341;29;20049;-81
2022/03/06 10:07:11;;;;;;;142.30;53.08;;;;;;;3.50;62.69;100398.56;4901115;29;20044;-81
2022/03/06 10:09:56;;;;;;;71.32;25.60;;;;;;;3.49;64.20;100393.38;4887386;29;20045;-79
2022/03/06 10:12:43;;;;;;;21.27;13.07;;;;;;;3.79;62.17;100387.69;4873921;29;20412;-81
2022/03/06 10:15:28;;;;;;;19.98;10.52;;;;;;;3.92;59.91;100394.75;4887327;29;20041;-80
2022/03/06 10:18:14;;;;;;;46.55;17.23;;;;;;;3.64;59.87;100382.31;4901048;29;20059;-80
2022/03/06 10:21:21;;;;;;;33.08;14.35;;;;;;;4.14;60.01;100392.38;4901372;29;20123;-81
2022/03/06 10:24:08;;;;;;;25.73;12.88;;;;;;;4.25;60.28;100408.91;4887053;29;20053;-83
2022/03/06 10:26:52;;;;;;;50.33;15.88;;;;;;;3.50;54.91;100401.13;4900690;29;20048;-82
2022/03/06 10:29:37;;;;;;;124.07;30.00;;;;;;;3.72;56.72;100394.50;4900088;29;20436;-81
2022/03/06 10:32:21;;;;;;;134.80;38.92;;;;;;;3.69;60.00;100397.06;4898949;29;20124;-80
2022/03/06 10:35:06;;;;;;;201.05;79.63;;;;;;;3.71;60.44;100389.31;4899123;29;20052;-81
2022/03/06 10:37:51;;;;;;;296.75;76.53;;;;;;;3.09;59.50;100404.88;4899028;29;20124;-80
2022/03/06 10:40:38;;;;;;;109.25;33.35;;;;;;;3.14;58.87;100390.28;4898889;29;20037;-80
2022/03/06 10:43:24;;;;;;;84.13;27.83;;;;;;;3.47;61.02;100395.06;4885003;29;20458;-79
2022/03/06 10:46:17;;;;;;;52.97;21.15;;;;;;;3.61;60.71;100401.31;4898897;29;20044;-80
2022/03/06 10:49:12;;;;;;;37.83;16.80;;;;;;;3.69;61.79;100391.03;4899306;29;20435;-80
2022/03/06 10:51:56;;;;;;;20.77;13.00;;;;;;;3.36;61.07;100386.28;4883451;29;20064;-80
2022/03/06 10:54:52;;;;;;;20.52;12.73;;;;;;;3.50;60.31;100380.41;4901701;29;20374;-80
2022/03/06 10:57:36;;;;;;;31.30;14.07;;;;;;;3.57;59.48;100380.50;4890626;29;20045;-81
2022/03/06 11:00:20;;;;;;;31.63;13.52;;;;;;;3.44;60.93;100371.69;4904480;29;20044;-80
2022/03/06 11:03:07;;;;;;;140.00;35.05;;;;;;;3.51;60.35;100381.31;4904798;29;20048;-80
2022/03/06 11:05:52;;;;;;;93.50;27.38;;;;;;;3.13;59.27;100352.31;4888056;29;20064;-81
2022/03/06 11:08:39;;;;;;;176.48;49.80;;;;;;;3.05;62.09;100375.50;4890829;29;20049;-80
2022/03/06 11:11:23;;;;;;;39.10;17.48;;;;;;;2.69;60.91;100368.91;4904349;29;20045;-80
2022/03/06 11:14:09;;;;;;;69.18;29.67;;;;;;;2.78;62.74;100381.13;4890834;29;20045;-80
2022/03/06 11:16:54;;;;;;;74.03;27.70;;;;;;;3.00;63.28;100372.84;4890785;29;20044;-80
2022/03/06 11:19:38;;;;;;;41.25;23.15;;;;;;;3.15;61.93;100358.38;4890231;29;20056;-80
2022/03/06 11:22:37;;;;;;;96.57;37.40;;;;;;;3.27;63.05;100369.75;4903948;29;20068;-80
2022/03/06 11:25:25;;;;;;;28.30;17.63;;;;;;;3.38;62.74;100358.66;4904160;29;20045;-81
2022/03/06 11:28:20;;;;;;;39.10;25.52;;;;;;;3.17;61.83;100341.16;4904393;29;20123;-81
2022/03/06 11:31:05;;;;;;;37.38;16.90;;;;;;;3.27;60.79;100341.28;4889986;29;20104;-93
2022/03/06 11:33:55;;;;;;;26.13;16.13;;;;;;;3.47;62.25;100348.44;4904726;29;20424;-92
2022/03/06 11:36:48;;;;;;;24.77;14.90;;;;;;;3.24;59.64;100342.97;4874273;29;20439;-92
2022/03/06 11:39:32;;;;;;;38.13;18.00;;;;;;;3.12;59.96;100338.50;4903772;29;20040;-92
2022/03/06 11:42:52;;;;;;;21.55;13.40;;;;;;;3.48;60.40;100332.94;4903722;29;20420;-92
2022/03/06 11:45:50;;;;;;;33.47;18.88;;;;;;;3.74;60.55;100332.38;4889960;29;20045;-92
2022/03/06 11:48:34;;;;;;;27.20;16.77;;;;;;;3.45;58.32;100329.44;4876529;29;20052;-93
2022/03/06 11:51:22;;;;;;;19.10;12.57;;;;;;;3.69;59.79;100331.44;4889914;29;20128;-93
2022/03/06 11:54:11;;;;;;;22.02;13.95;;;;;;;3.42;58.47;100330.25;4876546;29;20052;-91
2022/03/06 11:56:56;;;;;;;23.45;15.85;;;;;;;2.77;60.23;100317.31;4889977;29;20424;-92
2022/03/06 11:59:44;;;;;;;29.55;20.30;;;;;;;2.95;59.66;100325.31;4903598;29;20049;-93
2022/03/06 12:02:28;;;;;;;29.30;17.15;;;;;;;2.77;59.04;100313.00;4903662;29;20049;-91
2022/03/06 12:05:14;;;;;;;25.83;17.58;;;;;;;2.85;59.60;100320.88;4876961;29;20041;-92
2022/03/06 12:07:59;;;;;;;30.42;19.88;;;;;;;2.83;59.97;100325.16;4876198;29;20405;-92
2022/03/06 12:10:44;;;;;;;25.77;17.65;;;;;;;2.71;58.85;100310.31;4876426;29;20052;-92
2022/03/06 12:13:29;;;;;;;25.50;15.23;;;;;;;2.45;60.04;100315.09;4889830;29;20059;-92
2022/03/06 12:16:13;;;;;;;31.27;17.98;;;;;;;2.44;60.56;100308.19;4903148;29;20060;-79
2022/03/06 12:19:02;;;;;;;79.18;46.33;;;;;;;2.52;60.90;100321.22;4903629;29;20104;-93
2022/03/06 12:21:46;;;;;;;32.28;19.38;;;;;;;2.13;62.43;100311.13;4889701;29;20055;-92
2022/03/06 12:24:31;;;;;;;31.48;17.90;;;;;;;2.16;64.05;100317.22;4889836;29;20132;-92
2022/03/06 12:27:23;;;;;;;26.33;16.23;;;;;;;2.31;63.57;100303.69;4889280;29;20104;-93
2022/03/06 12:30:10;;;;;;;28.38;16.95;;;;;;;2.30;62.34;100314.84;4889381;29;20092;-91
2022/03/06 12:32:55;;;;;;;27.08;15.43;;;;;;;2.17;62.31;100295.66;4889207;29;20056;-92
2022/03/06 12:35:40;;;;;;;30.90;17.40;;;;;;;2.23;62.77;100311.28;4887278;29;20067;-91